createdAt,value
2016-11-02T00:00:49.677Z,19.32
2016-11-02T00:01:49.365Z,19.31
2016-11-02T00:02:49.346Z,19.27
2016-11-02T00:03:49.343Z,19.28
2016-11-02T00:04:49.611Z,19.25
2016-11-02T00:05:49.294Z,19.32
2016-11-02T00:06:49.579Z,19.27
2016-11-02T00:07:49.558Z,19.32
2016-11-02T00:08:49.539Z,19.4
2016-11-02T00:09:49.553Z,19.35
2016-11-02T00:10:49.611Z,19.32
2016-11-02T00:11:49.564Z,19.38
2016-11-02T00:12:49.515Z,19.31
2016-11-02T00:13:49.236Z,19.35
2016-11-02T00:14:49.496Z,19.39
2016-11-02T00:15:49.424Z,19.39
2016-11-02T00:16:49.405Z,19.31
2016-11-02T00:17:49.393Z,19.38
2016-11-02T00:18:49.375Z,19.34
2016-11-02T00:19:49.385Z,19.35
2016-11-02T00:20:49.353Z,19.45
2016-11-02T00:21:49.325Z,19.45
2016-11-02T00:22:49.310Z,19.28
2016-11-02T00:23:49.305Z,19.34
2016-11-02T00:24:49.274Z,19.39
2016-11-02T00:25:49.264Z,19.32
2016-11-02T00:26:49.241Z,19.32
2016-11-02T00:27:48.922Z,19.43
2016-11-02T00:28:49.215Z,19.43
2016-11-02T00:29:49.192Z,19.43
2016-11-02T00:30:49.183Z,19.42
2016-11-02T00:31:49.153Z,19.43
2016-11-02T00:32:48.842Z,19.35
2016-11-02T00:33:49.120Z,19.43
2016-11-02T00:34:48.811Z,19.4
2016-11-02T00:35:49.087Z,19.42
2016-11-02T00:36:49.077Z,19.4
2016-11-02T00:37:49.054Z,19.32
2016-11-02T00:38:49.041Z,19.35
2016-11-02T00:39:49.020Z,19.46
2016-11-02T00:40:49.006Z,19.45
2016-11-02T00:41:48.985Z,19.45
2016-11-02T00:42:48.968Z,19.49
2016-11-02T00:43:48.959Z,19.42
2016-11-02T00:44:48.937Z,19.38
2016-11-02T00:45:48.924Z,19.46
2016-11-02T00:46:48.902Z,19.35
2016-11-02T00:47:48.889Z,19.46
2016-11-02T00:48:48.869Z,19.43
2016-11-02T00:49:48.855Z,19.4
2016-11-02T00:50:48.836Z,19.45
2016-11-02T00:51:48.822Z,19.32
2016-11-02T00:52:48.803Z,19.34
2016-11-02T00:53:48.784Z,19.4
2016-11-02T00:54:48.766Z,19.45
2016-11-02T00:55:48.746Z,19.4
2016-11-02T00:56:48.735Z,19.45
2016-11-02T00:57:48.412Z,19.45
2016-11-02T00:58:48.706Z,19.43
2016-11-02T00:59:48.679Z,19.39
2016-11-02T01:00:48.663Z,19.42
2016-11-02T01:01:48.643Z,19.43
2016-11-02T01:02:48.697Z,19.5
2016-11-02T01:03:48.625Z,19.42
2016-11-02T01:04:48.599Z,19.43
2016-11-02T01:05:48.578Z,19.5
2016-11-02T01:06:48.559Z,19.4
2016-11-02T01:07:48.540Z,19.45
2016-11-02T01:08:48.527Z,19.43
2016-11-02T01:09:48.510Z,19.39
2016-11-02T01:10:48.495Z,19.38
2016-11-02T01:11:48.479Z,19.4
2016-11-02T01:12:48.456Z,19.39
2016-11-02T01:13:48.442Z,19.28
2016-11-02T01:14:48.421Z,19.34
2016-11-02T01:15:48.413Z,19.38
2016-11-02T01:16:48.392Z,19.28
2016-11-02T01:17:48.377Z,19.39
2016-11-02T01:18:48.352Z,19.3
2016-11-02T01:19:48.341Z,19.34
2016-11-02T01:20:48.319Z,19.38
2016-11-02T01:21:48.315Z,19.27
2016-11-02T01:22:48.286Z,19.32
2016-11-02T01:23:48.313Z,19.28
2016-11-02T01:24:48.292Z,19.35
2016-11-02T01:25:48.237Z,19.34
2016-11-02T01:26:48.227Z,19.35
2016-11-02T01:27:48.206Z,19.32
2016-11-02T01:28:48.191Z,19.34
2016-11-02T01:29:48.172Z,19.28
2016-11-02T01:30:48.151Z,19.34
2016-11-02T01:31:48.140Z,19.25
2016-11-02T01:32:48.122Z,19.28
2016-11-02T01:33:48.104Z,19.27
2016-11-02T01:34:48.082Z,19.34
2016-11-02T01:35:48.075Z,19.27
2016-11-02T01:36:48.051Z,19.3
2016-11-02T01:37:48.043Z,19.25
2016-11-02T01:38:48.023Z,19.25
2016-11-02T01:39:48.006Z,19.28
2016-11-02T01:40:47.989Z,19.31
2016-11-02T01:41:47.974Z,19.34
2016-11-02T01:42:47.951Z,19.31
2016-11-02T01:43:47.933Z,19.25
2016-11-02T01:44:47.920Z,19.3
2016-11-02T01:45:47.900Z,19.24
2016-11-02T01:46:47.890Z,19.3
2016-11-02T01:47:47.866Z,19.25
2016-11-02T01:48:47.851Z,19.27
2016-11-02T01:49:47.836Z,19.27
2016-11-02T01:50:47.825Z,19.27
2016-11-02T01:51:47.804Z,19.3
2016-11-02T01:52:47.785Z,19.3
2016-11-02T01:53:47.807Z,19.25
2016-11-02T01:54:47.752Z,19.23
2016-11-02T01:55:47.736Z,19.27
2016-11-02T01:56:47.752Z,19.24
2016-11-02T01:57:47.699Z,19.39
2016-11-02T01:58:47.683Z,19.31
2016-11-02T01:59:47.669Z,19.28
2016-11-02T02:00:47.653Z,19.25
2016-11-02T02:01:47.632Z,19.28
2016-11-02T02:02:47.617Z,19.25
2016-11-02T02:03:47.602Z,19.16
2016-11-02T02:04:47.617Z,19.2
2016-11-02T02:05:47.567Z,19.15
2016-11-02T02:06:47.578Z,19.34
2016-11-02T02:07:47.535Z,19.23
2016-11-02T02:08:47.520Z,19.25
2016-11-02T02:09:47.499Z,19.17
2016-11-02T02:10:47.484Z,19.25
2016-11-02T02:11:47.468Z,19.2
2016-11-02T02:12:47.453Z,19.27
2016-11-02T02:13:47.434Z,19.2
2016-11-02T02:14:47.416Z,19.17
2016-11-02T02:15:47.404Z,19.2
2016-11-02T02:16:47.383Z,19.28
2016-11-02T02:17:47.364Z,19.25
2016-11-02T02:18:47.349Z,19.23
2016-11-02T02:19:47.331Z,19.25
2016-11-02T02:20:47.315Z,19.34
2016-11-02T02:21:47.335Z,19.16
2016-11-02T02:22:47.280Z,19.2
2016-11-02T02:23:47.265Z,19.23
2016-11-02T02:24:47.246Z,19.23
2016-11-02T02:25:47.237Z,19.2
2016-11-02T02:26:47.233Z,19.17
2016-11-02T02:27:46.896Z,19.17
2016-11-02T02:28:47.178Z,19.2
2016-11-02T02:29:47.170Z,19.3
2016-11-02T02:30:47.144Z,19.3
2016-11-02T02:31:47.126Z,19.23
2016-11-02T02:32:47.111Z,19.12
2016-11-02T02:33:47.096Z,19.24
2016-11-02T02:34:47.089Z,19.25
2016-11-02T02:35:47.063Z,19.23
2016-11-02T02:36:47.044Z,19.28
2016-11-02T02:37:47.037Z,19.21
2016-11-02T02:38:47.016Z,19.16
2016-11-02T02:39:46.995Z,19.21
2016-11-02T02:40:46.982Z,19.17
2016-11-02T02:41:46.963Z,19.24
2016-11-02T02:42:46.940Z,19.23
2016-11-02T02:43:46.928Z,19.24
2016-11-02T02:44:46.912Z,19.27
2016-11-02T02:45:46.892Z,19.2
2016-11-02T02:46:46.879Z,19.16
2016-11-02T02:47:46.868Z,19.25
2016-11-02T02:48:46.550Z,19.25
2016-11-02T02:49:46.835Z,19.21
2016-11-02T02:50:46.808Z,19.2
2016-11-02T02:51:46.795Z,19.27
2016-11-02T02:52:46.778Z,19.23
2016-11-02T02:53:46.762Z,19.15
2016-11-02T02:54:46.741Z,19.12
2016-11-02T02:55:46.725Z,19.16
2016-11-02T02:56:46.708Z,19.27
2016-11-02T02:57:46.695Z,19.2
2016-11-02T02:58:46.677Z,19.24
2016-11-02T02:59:46.656Z,19.27
2016-11-02T03:00:46.636Z,19.16
2016-11-02T03:01:46.630Z,19.23
2016-11-02T03:02:46.608Z,19.16
2016-11-02T03:03:46.591Z,19.17
2016-11-02T03:04:46.572Z,19.16
2016-11-02T03:05:46.559Z,19.2
2016-11-02T03:06:46.540Z,19.23
2016-11-02T03:07:46.520Z,19.12
2016-11-02T03:08:46.505Z,19.2
2016-11-02T03:09:46.488Z,19.25
2016-11-02T03:10:46.471Z,19.12
2016-11-02T03:11:46.456Z,19.2
2016-11-02T03:12:46.145Z,19.21
2016-11-02T03:13:46.420Z,19.1
2016-11-02T03:14:46.410Z,19.21
2016-11-02T03:15:46.383Z,19.15
2016-11-02T03:16:46.374Z,19.16
2016-11-02T03:17:46.351Z,19.25
2016-11-02T03:18:46.344Z,19.2
2016-11-02T03:19:46.321Z,19.16
2016-11-02T03:20:46.305Z,19.23
2016-11-02T03:21:46.288Z,19.17
2016-11-02T03:22:46.271Z,19.25
2016-11-02T03:23:45.950Z,19.21
2016-11-02T03:24:46.288Z,19.23
2016-11-02T03:25:46.221Z,19.12
2016-11-02T03:26:46.204Z,19.2
2016-11-02T03:27:46.185Z,19.15
2016-11-02T03:28:46.184Z,19.23
2016-11-02T03:29:46.153Z,19.1
2016-11-02T03:30:46.135Z,19.2
2016-11-02T03:31:46.163Z,19.2
2016-11-02T03:32:46.115Z,19.24
2016-11-02T03:33:46.088Z,19.21
2016-11-02T03:34:45.763Z,19.23
2016-11-02T03:35:46.054Z,19.16
2016-11-02T03:36:46.033Z,19.24
2016-11-02T03:37:46.015Z,19.2
2016-11-02T03:38:46.001Z,19.16
2016-11-02T03:39:46.025Z,19.25
2016-11-02T03:40:45.973Z,19.25
2016-11-02T03:41:45.947Z,19.15
2016-11-02T03:42:45.933Z,19.17
2016-11-02T03:43:45.919Z,19.23
2016-11-02T03:44:45.898Z,19.17
2016-11-02T03:45:45.882Z,19.15
2016-11-02T03:46:45.877Z,19.2
2016-11-02T03:47:45.850Z,19.2
2016-11-02T03:48:45.832Z,19.13
2016-11-02T03:49:45.851Z,19.17
2016-11-02T03:50:45.796Z,19.12
2016-11-02T03:51:45.783Z,19.16
2016-11-02T03:52:45.765Z,19.17
2016-11-02T03:53:45.750Z,19.12
2016-11-02T03:54:45.729Z,19.2
2016-11-02T03:55:45.713Z,19.13
2016-11-02T03:56:45.697Z,19.17
2016-11-02T03:57:45.680Z,19.13
2016-11-02T03:58:45.666Z,19.17
2016-11-02T03:59:45.341Z,19.16
2016-11-02T04:00:45.638Z,19.17
2016-11-02T04:01:45.611Z,19.24
2016-11-02T04:02:45.599Z,19.13
2016-11-02T04:03:45.684Z,19.2
2016-11-02T04:04:45.661Z,19.1
2016-11-02T04:05:45.642Z,19.13
2016-11-02T04:06:45.639Z,19.16
2016-11-02T04:07:45.607Z,19.15
2016-11-02T04:08:45.587Z,19.17
2016-11-02T04:09:45.576Z,19.15
2016-11-02T04:10:45.558Z,19.15
2016-11-02T04:11:45.545Z,19.15
2016-11-02T04:12:45.210Z,19.21
2016-11-02T04:13:45.514Z,19.09
2016-11-02T04:14:45.491Z,19.15
2016-11-02T04:15:45.472Z,19.16
2016-11-02T04:16:45.461Z,19.12
2016-11-02T04:17:45.434Z,19.12
2016-11-02T04:18:45.421Z,19.12
2016-11-02T04:19:45.403Z,19.12
2016-11-02T04:20:45.072Z,19.17
2016-11-02T04:21:45.059Z,19.09
2016-11-02T04:22:45.354Z,19.1
2016-11-02T04:23:45.347Z,19.1
2016-11-02T04:24:45.325Z,19.09
2016-11-02T04:25:45.300Z,19.12
2016-11-02T04:26:45.283Z,19.13
2016-11-02T04:27:44.958Z,19.1
2016-11-02T04:28:44.949Z,19.09
2016-11-02T04:29:45.233Z,19.1
2016-11-02T04:30:45.216Z,19.15
2016-11-02T04:31:45.203Z,19.12
2016-11-02T04:32:44.885Z,19.12
2016-11-02T04:33:45.175Z,19.09
2016-11-02T04:34:45.153Z,19.12
2016-11-02T04:35:44.736Z,19.16
2016-11-02T04:36:45.023Z,19.13
2016-11-02T04:37:44.999Z,19.13
2016-11-02T04:38:44.986Z,19.12
2016-11-02T04:39:44.969Z,19.15
2016-11-02T04:40:44.948Z,19.06
2016-11-02T04:41:44.940Z,19.1
2016-11-02T04:42:44.916Z,19.12
2016-11-02T04:43:44.896Z,19.15
2016-11-02T04:44:44.893Z,19.12
2016-11-02T04:45:44.868Z,19.1
2016-11-02T04:46:44.846Z,19.12
2016-11-02T04:47:44.835Z,19.12
2016-11-02T04:48:44.814Z,19.09
2016-11-02T04:49:44.796Z,19.07
2016-11-02T04:50:44.785Z,19.09
2016-11-02T04:51:44.764Z,19.12
2016-11-02T04:52:44.743Z,19.07
2016-11-02T04:53:44.731Z,19.12
2016-11-02T04:54:44.718Z,19.09
2016-11-02T04:55:44.697Z,19.09
2016-11-02T04:56:44.680Z,19.09
2016-11-02T04:57:44.661Z,19.02
2016-11-02T04:58:44.650Z,18.97
2016-11-02T04:59:44.633Z,19.05
2016-11-02T05:00:44.616Z,19.07
2016-11-02T05:01:44.592Z,19.06
2016-11-02T05:02:44.575Z,18.99
2016-11-02T05:03:44.561Z,18.97
2016-11-02T05:04:44.548Z,19.02
2016-11-02T05:05:44.563Z,19.13
2016-11-02T05:06:44.505Z,19.2
2016-11-02T05:07:44.496Z,19.23
2016-11-02T05:08:44.473Z,19.35
2016-11-02T05:09:44.468Z,19.46
2016-11-02T05:10:44.438Z,19.42
2016-11-02T05:11:44.457Z,19.53
2016-11-02T05:12:44.414Z,19.62
2016-11-02T05:13:44.393Z,19.65
2016-11-02T05:14:44.374Z,19.75
2016-11-02T05:15:44.054Z,19.78
2016-11-02T05:16:44.337Z,19.72
2016-11-02T05:17:44.320Z,19.85
2016-11-02T05:18:44.304Z,19.8
2016-11-02T05:19:44.288Z,19.85
2016-11-02T05:20:44.270Z,19.97
2016-11-02T05:21:44.257Z,19.97
2016-11-02T05:22:44.240Z,19.9
2016-11-02T05:23:44.218Z,20.04
2016-11-02T05:24:44.204Z,20.08
2016-11-02T05:25:44.191Z,20.1
2016-11-02T05:26:44.169Z,20.1
2016-11-02T05:27:44.158Z,20.1
2016-11-02T05:28:44.137Z,20.12
2016-11-02T05:29:44.118Z,20.13
2016-11-02T05:30:44.110Z,20.16
2016-11-02T05:31:44.087Z,20.15
2016-11-02T05:32:44.072Z,20.1
2016-11-02T05:33:44.057Z,20.15
2016-11-02T05:34:44.039Z,20.2
2016-11-02T05:35:44.020Z,20.13
2016-11-02T05:36:44.005Z,20.1
2016-11-02T05:37:43.988Z,20.13
2016-11-02T05:38:44.019Z,20.1
2016-11-02T05:39:43.958Z,20.08
2016-11-02T05:40:43.935Z,20.08
2016-11-02T05:41:43.971Z,20.1
2016-11-02T05:42:43.904Z,20.07
2016-11-02T05:43:43.891Z,20.07
2016-11-02T05:44:43.869Z,20.07
2016-11-02T05:45:43.854Z,20.15
2016-11-02T05:46:43.837Z,20.13
2016-11-02T05:47:43.857Z,20.08
2016-11-02T05:48:43.802Z,20.19
2016-11-02T05:49:43.786Z,20.05
2016-11-02T05:50:43.768Z,20.13
2016-11-02T05:51:43.751Z,20.08
2016-11-02T05:52:43.732Z,20.07
2016-11-02T05:53:43.717Z,20.17
2016-11-02T05:54:43.703Z,20.07
2016-11-02T05:55:43.692Z,20.15
2016-11-02T05:56:43.666Z,20.05
2016-11-02T05:57:43.650Z,20.04
2016-11-02T05:58:43.639Z,20.08
2016-11-02T05:59:43.620Z,20.19
2016-11-02T06:00:43.600Z,20.07
2016-11-02T06:01:43.585Z,20.08
2016-11-02T06:02:43.569Z,20.16
2016-11-02T06:03:43.548Z,20.2
2016-11-02T06:04:43.537Z,20.16
2016-11-02T06:05:43.520Z,20.22
2016-11-02T06:06:43.203Z,20.23
2016-11-02T06:07:43.483Z,20.19
2016-11-02T06:08:43.466Z,20.17
2016-11-02T06:09:43.451Z,20.22
2016-11-02T06:10:43.432Z,20.2
2016-11-02T06:11:43.484Z,20.3
2016-11-02T06:12:43.401Z,20.25
2016-11-02T06:13:43.390Z,20.25
2016-11-02T06:14:43.367Z,20.25
2016-11-02T06:15:43.353Z,19.98
2016-11-02T06:16:43.349Z,19.87
2016-11-02T06:17:43.321Z,19.76
2016-11-02T06:18:43.310Z,19.61
2016-11-02T06:19:43.290Z,19.62
2016-11-02T06:20:43.273Z,19.64
2016-11-02T06:21:42.956Z,19.72
2016-11-02T06:22:43.237Z,19.76
2016-11-02T06:23:43.219Z,19.86
2016-11-02T06:24:43.209Z,19.94
2016-11-02T06:25:43.187Z,19.94
2016-11-02T06:26:43.185Z,19.98
2016-11-02T06:27:43.163Z,20.08
2016-11-02T06:28:43.145Z,20.15
2016-11-02T06:29:43.141Z,20.16
2016-11-02T06:30:43.110Z,20.16
2016-11-02T06:31:43.090Z,20.12
2016-11-02T06:32:43.076Z,20.16
2016-11-02T06:33:43.057Z,20.15
2016-11-02T06:34:42.738Z,20.15
2016-11-02T06:35:43.024Z,20.17
2016-11-02T06:36:43.013Z,20.17
2016-11-02T06:37:42.996Z,20.17
2016-11-02T06:38:42.971Z,20.25
2016-11-02T06:39:42.951Z,20.22
2016-11-02T06:40:42.941Z,20.33
2016-11-02T06:41:42.926Z,20.25
2016-11-02T06:42:42.914Z,20.27
2016-11-02T06:43:42.886Z,20.3
2016-11-02T06:44:42.877Z,20.25
2016-11-02T06:45:42.862Z,20.37
2016-11-02T06:46:42.872Z,20.25
2016-11-02T06:47:42.821Z,20.35
2016-11-02T06:48:42.810Z,20.35
2016-11-02T06:49:42.795Z,20.31
2016-11-02T06:50:42.774Z,20.33
2016-11-02T06:51:42.767Z,20.37
2016-11-02T06:52:42.737Z,20.26
2016-11-02T06:53:42.732Z,20.3
2016-11-02T06:54:42.713Z,20.27
2016-11-02T06:55:42.696Z,20.26
2016-11-02T06:56:42.674Z,20.3
2016-11-02T06:57:42.365Z,20.35
2016-11-02T06:58:42.648Z,20.35
2016-11-02T06:59:42.625Z,20.33
2016-11-02T07:00:42.312Z,20.37
2016-11-02T07:01:42.597Z,20.38
2016-11-02T07:02:42.577Z,20.37
2016-11-02T07:03:42.564Z,20.38
2016-11-02T07:04:42.239Z,20.4
2016-11-02T07:05:42.526Z,20.42
2016-11-02T07:06:42.514Z,20.33
2016-11-02T07:07:42.499Z,20.33
2016-11-02T07:08:42.480Z,20.37
2016-11-02T07:09:42.163Z,20.37
2016-11-02T07:10:42.449Z,20.38
2016-11-02T07:11:42.432Z,20.37
2016-11-02T07:12:42.417Z,20.35
2016-11-02T07:13:42.397Z,20.34
2016-11-02T07:14:42.385Z,20.4
2016-11-02T07:15:42.375Z,20.38
2016-11-02T07:16:42.346Z,20.48
2016-11-02T07:17:42.339Z,20.44
2016-11-02T07:18:42.318Z,20.46
2016-11-02T07:19:42.301Z,20.44
2016-11-02T07:20:42.281Z,20.46
2016-11-02T07:21:42.268Z,20.51
2016-11-02T07:22:42.251Z,20.5
2016-11-02T07:23:42.232Z,20.51
2016-11-02T07:24:42.212Z,20.46
2016-11-02T07:25:42.199Z,20.48
2016-11-02T07:26:42.184Z,20.5
2016-11-02T07:27:41.866Z,20.5
2016-11-02T07:28:42.152Z,20.51
2016-11-02T07:29:42.137Z,20.22
2016-11-02T07:30:42.121Z,19.43
2016-11-02T07:31:41.798Z,18.84
2016-11-02T07:32:41.825Z,19.01
2016-11-02T07:33:42.077Z,19.28
2016-11-02T07:34:42.058Z,19.7
2016-11-02T07:35:42.042Z,19.79
2016-11-02T07:36:42.020Z,19.97
2016-11-02T07:37:41.711Z,20.12
2016-11-02T07:38:41.999Z,20.1
2016-11-02T07:39:41.972Z,20.17
2016-11-02T07:40:41.959Z,20.31
2016-11-02T07:41:41.937Z,20.27
2016-11-02T07:42:41.929Z,20.37
2016-11-02T07:43:41.928Z,20.35
2016-11-02T07:44:41.890Z,20.4
2016-11-02T07:45:41.877Z,20.42
2016-11-02T07:46:41.584Z,20.5
2016-11-02T07:47:41.539Z,20.46
2016-11-02T07:48:41.825Z,20.53
2016-11-02T07:49:41.804Z,20.5
2016-11-02T07:50:41.489Z,20.51
2016-11-02T07:51:41.778Z,20.58
2016-11-02T07:52:41.756Z,20.61
2016-11-02T07:53:41.739Z,20.58
2016-11-02T07:54:41.732Z,20.58
2016-11-02T07:55:41.445Z,20.66
2016-11-02T07:56:41.692Z,20.64
2016-11-02T07:57:41.676Z,20.63
2016-11-02T07:58:41.060Z,20.63
2016-11-02T07:59:41.348Z,20.63
2016-11-02T08:00:41.631Z,20.63
2016-11-02T08:01:41.612Z,20.69
2016-11-02T08:02:41.600Z,20.63
2016-11-02T08:03:41.316Z,20.66
2016-11-02T08:04:41.576Z,20.76
2016-11-02T08:05:41.547Z,20.71
2016-11-02T08:06:41.230Z,20.75
2016-11-02T08:07:41.514Z,20.66
2016-11-02T08:08:41.497Z,20.71
2016-11-02T08:09:41.486Z,20.72
2016-11-02T08:10:41.463Z,20.66
2016-11-02T08:11:41.449Z,20.64
2016-11-02T08:12:41.440Z,20.63
2016-11-02T08:13:41.115Z,20.68
2016-11-02T08:14:41.400Z,20.66
2016-11-02T08:15:41.387Z,20.63
2016-11-02T08:16:41.363Z,20.64
2016-11-02T08:17:41.054Z,20.71
2016-11-02T08:18:41.337Z,20.69
2016-11-02T08:19:41.320Z,20.66
2016-11-02T08:20:41.306Z,20.68
2016-11-02T08:21:41.321Z,20.68
2016-11-02T08:22:41.276Z,20.68
2016-11-02T08:23:41.253Z,20.71
2016-11-02T08:24:41.250Z,20.71
2016-11-02T08:25:41.268Z,20.63
2016-11-02T08:26:41.207Z,20.66
2016-11-02T08:27:40.897Z,20.63
2016-11-02T08:28:41.177Z,20.66
2016-11-02T08:29:41.198Z,20.73
2016-11-02T08:30:41.142Z,20.68
2016-11-02T08:31:41.124Z,20.73
2016-11-02T08:32:41.106Z,20.76
2016-11-02T08:33:40.797Z,20.64
2016-11-02T08:34:41.078Z,20.63
2016-11-02T08:35:41.060Z,20.73
2016-11-02T08:36:41.039Z,20.73
2016-11-02T08:37:40.734Z,20.75
2016-11-02T08:38:41.015Z,20.79
2016-11-02T08:39:41.001Z,20.78
2016-11-02T08:40:40.981Z,20.72
2016-11-02T08:41:40.963Z,20.79
2016-11-02T08:42:40.653Z,20.78
2016-11-02T08:43:40.928Z,20.75
2016-11-02T08:44:40.920Z,20.76
2016-11-02T08:45:40.598Z,20.78
2016-11-02T08:46:40.929Z,20.81
2016-11-02T08:47:40.873Z,20.76
2016-11-02T08:48:40.288Z,20.78
2016-11-02T08:49:40.831Z,20.85
2016-11-02T08:50:40.817Z,20.78
2016-11-02T08:51:40.800Z,20.79
2016-11-02T08:52:40.795Z,20.71
2016-11-02T08:53:40.468Z,20.79
2016-11-02T08:54:40.491Z,20.71
2016-11-02T08:55:40.436Z,20.75
2016-11-02T08:56:40.725Z,20.76
2016-11-02T08:57:40.703Z,20.78
2016-11-02T08:58:40.695Z,20.76
2016-11-02T08:59:40.374Z,20.73
2016-11-02T09:00:40.655Z,20.76
2016-11-02T09:01:40.637Z,20.71
2016-11-02T09:02:40.633Z,20.81
2016-11-02T09:03:40.617Z,20.72
2016-11-02T09:04:40.588Z,20.76
2016-11-02T09:05:40.577Z,20.73
2016-11-02T09:06:40.558Z,20.82
2016-11-02T09:07:40.542Z,20.81
2016-11-02T09:08:40.528Z,20.82
2016-11-02T09:09:40.509Z,20.81
2016-11-02T09:10:40.501Z,20.78
2016-11-02T09:11:40.484Z,20.85
2016-11-02T09:12:40.174Z,20.57
2016-11-02T09:13:40.443Z,19.07
2016-11-02T09:14:40.433Z,17.96
2016-11-02T09:15:40.114Z,17.92
2016-11-02T09:16:40.394Z,18.29
2016-11-02T09:17:40.377Z,18.75
2016-11-02T09:18:40.372Z,19.25
2016-11-02T09:19:40.355Z,19.57
2016-11-02T09:20:40.335Z,19.82
2016-11-02T09:21:40.013Z,19.95
2016-11-02T09:22:40.299Z,20.17
2016-11-02T09:23:40.282Z,20.31
2016-11-02T09:24:40.263Z,20.5
2016-11-02T09:25:39.941Z,20.46
2016-11-02T09:26:40.227Z,20.69
2016-11-02T09:27:40.221Z,20.76
2016-11-02T09:28:40.203Z,20.83
2016-11-02T09:29:40.181Z,20.75
2016-11-02T09:30:40.170Z,20.85
2016-11-02T09:31:40.152Z,20.88
2016-11-02T09:32:40.131Z,20.81
2016-11-02T09:33:40.116Z,20.85
2016-11-02T09:34:40.111Z,20.85
2016-11-02T09:35:39.782Z,20.91
2016-11-02T09:36:40.068Z,20.93
2016-11-02T09:37:39.757Z,20.91
2016-11-02T09:38:40.040Z,20.9
2016-11-02T09:39:39.725Z,20.96
2016-11-02T09:40:39.716Z,20.94
2016-11-02T09:41:39.993Z,20.98
2016-11-02T09:42:39.973Z,20.93
2016-11-02T09:43:39.954Z,20.91
2016-11-02T09:44:39.943Z,21
2016-11-02T09:45:39.934Z,20.94
2016-11-02T09:46:39.608Z,20.98
2016-11-02T09:47:39.892Z,20.96
2016-11-02T09:48:39.884Z,20.96
2016-11-02T09:49:39.565Z,20.96
2016-11-02T09:50:39.240Z,20.93
2016-11-02T09:51:39.832Z,20.91
2016-11-02T09:52:39.817Z,20.91
2016-11-02T09:53:39.794Z,20.91
2016-11-02T09:54:39.782Z,20.96
2016-11-02T09:55:39.776Z,20.94
2016-11-02T09:56:39.444Z,20.94
2016-11-02T09:57:39.731Z,20.88
2016-11-02T09:58:39.714Z,20.93
2016-11-02T09:59:39.700Z,20.85
2016-11-02T10:00:39.685Z,20.91
2016-11-02T10:01:39.666Z,20.81
2016-11-02T10:02:39.655Z,21
2016-11-02T10:03:39.634Z,20.88
2016-11-02T10:04:39.323Z,21
2016-11-02T10:05:39.605Z,20.83
2016-11-02T10:06:39.286Z,20.9
2016-11-02T10:07:39.571Z,20.9
2016-11-02T10:08:39.562Z,20.98
2016-11-02T10:09:39.541Z,20.93
2016-11-02T10:10:39.525Z,21.08
2016-11-02T10:11:39.212Z,21.01
2016-11-02T10:12:39.497Z,20.98
2016-11-02T10:13:39.477Z,21.06
2016-11-02T10:14:39.373Z,21
2016-11-02T10:15:39.445Z,21.05
2016-11-02T10:16:39.426Z,21.01
2016-11-02T10:17:39.423Z,21
2016-11-02T10:18:39.394Z,21
2016-11-02T10:19:39.377Z,20.98
2016-11-02T10:20:39.367Z,21
2016-11-02T10:21:39.351Z,20.97
2016-11-02T10:22:39.031Z,20.96
2016-11-02T10:23:39.314Z,20.98
2016-11-02T10:24:39.303Z,20.96
2016-11-02T10:25:38.994Z,21.05
2016-11-02T10:26:39.266Z,21.12
2016-11-02T10:27:39.257Z,21.38
2016-11-02T10:28:39.244Z,21.64
2016-11-02T10:29:39.215Z,21.43
2016-11-02T10:30:39.198Z,21.55
2016-11-02T10:31:39.244Z,21.31
2016-11-02T10:32:39.174Z,21.26
2016-11-02T10:33:39.150Z,21.21
2016-11-02T10:34:39.143Z,21.11
2016-11-02T10:35:39.122Z,21.13
2016-11-02T10:36:39.108Z,21
2016-11-02T10:37:39.089Z,20.98
2016-11-02T10:38:39.078Z,21.05
2016-11-02T10:39:39.101Z,20.94
2016-11-02T10:40:39.044Z,20.97
2016-11-02T10:41:39.023Z,20.91
2016-11-02T10:42:39.016Z,20.93
2016-11-02T10:43:39.036Z,20.97
2016-11-02T10:44:38.987Z,20.91
2016-11-02T10:45:38.961Z,20.91
2016-11-02T10:46:38.644Z,20.82
2016-11-02T10:47:38.630Z,20.96
2016-11-02T10:48:38.916Z,20.94
2016-11-02T10:49:38.895Z,20.9
2016-11-02T10:50:38.630Z,20.87
2016-11-02T10:51:38.873Z,20.83
2016-11-02T10:52:38.848Z,20.9
2016-11-02T10:53:38.841Z,20.91
2016-11-02T10:54:38.817Z,20.88
2016-11-02T10:55:38.804Z,20.88
2016-11-02T10:56:38.793Z,20.88
2016-11-02T10:57:38.770Z,20.93
2016-11-02T10:58:38.754Z,20.91
2016-11-02T10:59:38.739Z,20.91
2016-11-02T11:00:38.730Z,20.97
2016-11-02T11:01:38.707Z,20.93
2016-11-02T11:02:38.397Z,20.83
2016-11-02T11:03:38.675Z,20.91
2016-11-02T11:04:38.658Z,20.85
2016-11-02T11:05:38.337Z,20.85
2016-11-02T11:06:38.631Z,20.85
2016-11-02T11:07:38.610Z,20.82
2016-11-02T11:08:37.994Z,20.82
2016-11-02T11:09:38.577Z,20.96
2016-11-02T11:10:38.567Z,20.9
2016-11-02T11:11:38.547Z,21
2016-11-02T11:12:38.532Z,20.97
2016-11-02T11:13:38.515Z,21.06
2016-11-02T11:14:38.518Z,21.09
2016-11-02T11:15:38.492Z,21.09
2016-11-02T11:16:38.463Z,21.06
2016-11-02T11:17:38.464Z,21.05
2016-11-02T11:18:38.437Z,21.11
2016-11-02T11:19:38.418Z,21.06
2016-11-02T11:20:38.440Z,21.01
2016-11-02T11:21:38.423Z,21.03
2016-11-02T11:22:38.374Z,21.09
2016-11-02T11:23:38.095Z,21.03
2016-11-02T11:24:38.344Z,21.03
2016-11-02T11:25:38.366Z,21
2016-11-02T11:26:38.307Z,21.11
2016-11-02T11:27:38.338Z,21.06
2016-11-02T11:28:38.279Z,21.05
2016-11-02T11:29:38.258Z,21.06
2016-11-02T11:30:37.944Z,21.16
2016-11-02T11:31:37.643Z,21.03
2016-11-02T11:32:38.218Z,21.06
2016-11-02T11:33:38.208Z,21.13
2016-11-02T11:34:38.180Z,21.13
2016-11-02T11:35:37.860Z,21.12
2016-11-02T11:36:38.149Z,21.08
2016-11-02T11:37:38.134Z,21
2016-11-02T11:38:38.117Z,21
2016-11-02T11:39:38.100Z,20.96
2016-11-02T11:40:38.099Z,21.01
2016-11-02T11:41:38.071Z,20.98
2016-11-02T11:42:37.754Z,20.97
2016-11-02T11:43:38.039Z,21.01
2016-11-02T11:44:38.022Z,21.03
2016-11-02T11:45:38.007Z,21
2016-11-02T11:46:37.991Z,20.94
2016-11-02T11:47:37.983Z,20.97
2016-11-02T11:48:37.957Z,21
2016-11-02T11:49:37.946Z,20.98
2016-11-02T11:50:37.925Z,21.05
2016-11-02T11:51:37.944Z,21.03
2016-11-02T11:52:37.896Z,20.94
2016-11-02T11:53:37.881Z,20.94
2016-11-02T11:54:37.864Z,20.9
2016-11-02T11:55:37.859Z,20.93
2016-11-02T11:56:37.532Z,20.9
2016-11-02T11:57:37.813Z,20.96
2016-11-02T11:58:37.795Z,20.91
2016-11-02T11:59:37.477Z,20.9
2016-11-02T12:00:37.773Z,20.85
2016-11-02T12:01:37.450Z,20.93
2016-11-02T12:02:37.734Z,20.91
2016-11-02T12:03:37.719Z,20.83
2016-11-02T12:04:37.702Z,20.96
2016-11-02T12:05:37.084Z,20.94
2016-11-02T12:06:37.364Z,20.97
2016-11-02T12:07:37.656Z,20.85
2016-11-02T12:08:37.636Z,20.83
2016-11-02T12:09:37.320Z,20.93
2016-11-02T12:10:37.603Z,20.97
2016-11-02T12:11:37.595Z,20.94
2016-11-02T12:12:37.278Z,20.93
2016-11-02T12:13:37.557Z,20.93
2016-11-02T12:14:37.542Z,20.98
2016-11-02T12:15:37.523Z,20.97
2016-11-02T12:16:37.511Z,20.96
2016-11-02T12:17:37.495Z,20.97
2016-11-02T12:18:37.484Z,20.93
2016-11-02T12:19:37.472Z,20.94
2016-11-02T12:20:37.449Z,20.96
2016-11-02T12:21:37.427Z,20.94
2016-11-02T12:22:37.423Z,21.05
2016-11-02T12:23:37.412Z,21.01
2016-11-02T12:24:37.382Z,21.01
2016-11-02T12:25:37.369Z,20.98
2016-11-02T12:26:37.048Z,21.05
2016-11-02T12:27:37.035Z,21.03
2016-11-02T12:28:37.319Z,21.06
2016-11-02T12:29:37.004Z,21.11
2016-11-02T12:30:37.295Z,21.06
2016-11-02T12:31:37.267Z,21.13
2016-11-02T12:32:37.252Z,21.11
2016-11-02T12:33:36.947Z,21.18
2016-11-02T12:34:37.223Z,21.21
2016-11-02T12:35:36.909Z,21.19
2016-11-02T12:36:37.189Z,21.22
2016-11-02T12:37:37.176Z,21.24
2016-11-02T12:38:37.155Z,21.11
2016-11-02T12:39:36.843Z,21.11
2016-11-02T12:40:37.132Z,21.11
2016-11-02T12:41:36.820Z,21.08
2016-11-02T12:42:37.095Z,21.16
2016-11-02T12:43:37.081Z,21.06
2016-11-02T12:44:37.069Z,21.22
2016-11-02T12:45:36.753Z,21.22
2016-11-02T12:46:36.765Z,21.28
2016-11-02T12:47:36.724Z,21.28
2016-11-02T12:48:37.011Z,21.22
2016-11-02T12:49:36.988Z,21.28
2016-11-02T12:50:36.973Z,21.27
2016-11-02T12:51:36.954Z,21.26
2016-11-02T12:52:36.338Z,21.22
2016-11-02T12:53:36.619Z,21.31
2016-11-02T12:54:36.970Z,21.26
2016-11-02T12:55:36.896Z,21.26
2016-11-02T12:56:36.879Z,21.26